Time;durP1;ratioP1;P1;durP2;ratioP2;P2;SDS_P1;SDS_P2;PMS_P1;PMS_P2;Temp;Humidity;BMP_temperature;BMP_pressure;BME280_temperature;BME280_humidity;BME280_pressure;Samples;Min_cycle;Max_cycle;Signal;HPM_P1;HPM_P2
2023/09/14 03:00:42;;;;;;;8.98;4.60;;;20.80;95.90;;;;;;5049938;28;20137;-86
2023/09/14 03:03:09;;;;;;;8.93;5.07;;;20.80;95.90;;;;;;5046131;28;20029;-86
2023/09/14 03:05:35;;;;;;;12.57;5.38;;;20.80;95.90;;;;;;5050103;28;20045;-86
2023/09/14 03:08:01;;;;;;;8.25;5.20;;;20.80;95.80;;;;;;5051233;28;20164;-87
2023/09/14 03:10:27;;;;;;;7.50;5.13;;;20.80;95.90;;;;;;5043135;28;20550;-86
2023/09/14 03:12:52;;;;;;;8.48;5.45;;;20.80;95.80;;;;;;5045578;28;20024;-87
2023/09/14 03:15:18;;;;;;;7.60;5.13;;;20.80;95.80;;;;;;5043250;28;20021;-86
2023/09/14 03:17:43;;;;;;;7.53;5.05;;;20.80;95.80;;;;;;5063449;28;20492;-86
2023/09/14 03:20:10;;;;;;;11.93;5.13;;;20.80;95.80;;;;;;5048855;28;20032;-86
2023/09/14 03:22:36;;;;;;;12.95;5.95;;;20.80;96.10;;;;;;5064575;28;20021;-86
2023/09/14 03:25:02;;;;;;;12.88;5.88;;;20.80;95.80;;;;;;5048627;28;20021;-86
2023/09/14 03:27:28;;;;;;;10.43;5.47;;;20.80;95.80;;;;;;5056409;28;20477;-87
2023/09/14 03:29:54;;;;;;;15.00;6.38;;;20.80;95.80;;;;;;5066022;28;20021;-86
2023/09/14 03:32:19;;;;;;;10.07;6.50;;;20.80;95.80;;;;;;5055375;28;20025;-87
2023/09/14 03:34:45;;;;;;;11.18;5.70;;;20.80;96.10;;;;;;5068970;28;20025;-87
2023/09/14 03:37:10;;;;;;;11.65;6.70;;;20.80;95.80;;;;;;5071771;28;20031;-85
2023/09/14 03:39:36;;;;;;;11.85;5.95;;;20.80;95.80;;;;;;5063355;28;20141;-85
2023/09/14 03:42:02;;;;;;;11.50;6.20;;;20.80;95.80;;;;;;5071647;28;20021;-86
2023/09/14 03:44:27;;;;;;;8.52;5.60;;;20.80;95.80;;;;;;5050827;28;20028;-86
2023/09/14 03:46:53;;;;;;;11.75;5.85;;;20.80;95.80;;;;;;5063968;28;20020;-86
2023/09/14 03:49:19;;;;;;;7.50;4.82;;;20.80;95.80;;;;;;5051599;28;20031;-86
2023/09/14 03:51:44;;;;;;;9.95;5.45;;;20.80;95.70;;;;;;5054378;28;20032;-86
2023/09/14 03:54:10;;;;;;;9.80;5.85;;;20.80;95.70;;;;;;5068636;28;20098;-86
2023/09/14 03:56:37;;;;;;;9.00;5.32;;;20.80;95.70;;;;;;5049153;28;20028;-86
2023/09/14 03:59:03;;;;;;;6.55;5.22;;;20.80;95.70;;;;;;5064631;28;20023;-85
2023/09/14 04:01:29;;;;;;;7.78;5.03;;;20.80;95.70;;;;;;5056488;28;20013;-86
2023/09/14 04:03:54;;;;;;;10.13;5.85;;;20.80;95.70;;;;;;5049206;28;20532;-86
2023/09/14 04:06:21;;;;;;;9.77;5.72;;;20.80;95.70;;;;;;5050783;28;20021;-85
2023/09/14 04:08:46;;;;;;;8.98;5.55;;;20.80;95.70;;;;;;5072903;28;20104;-85
2023/09/14 04:11:12;;;;;;;8.95;5.63;;;20.80;95.70;;;;;;5067631;28;20087;-85
2023/09/14 04:13:37;;;;;;;11.38;6.22;;;20.80;95.70;;;;;;5054361;28;20028;-85
2023/09/14 04:16:05;;;;;;;18.40;7.03;;;20.80;95.70;;;;;;5051183;28;20024;-85
2023/09/14 04:18:35;;;;;;;10.45;6.47;;;20.80;95.70;;;;;;5048884;28;20016;-86
2023/09/14 04:21:01;;;;;;;;;;;20.80;95.60;;;;;;5051743;28;20059;-86
2023/09/14 04:23:26;;;;;;;8.75;5.13;;;20.80;95.60;;;;;;5076290;28;19904;-85
2023/09/14 04:25:53;;;;;;;11.68;6.47;;;20.80;95.60;;;;;;5065555;28;20101;-84
2023/09/14 04:28:20;;;;;;;12.30;6.80;;;20.80;95.60;;;;;;5048457;28;20021;-86
2023/09/14 04:30:52;;;;;;;9.00;6.13;;;20.80;95.60;;;;;;5050458;28;20035;-86
2023/09/14 04:33:18;;;;;;;10.77;6.57;;;20.80;95.60;;;;;;5051093;28;20056;-86
2023/09/14 04:35:45;;;;;;;11.20;6.63;;;20.80;95.60;;;;;;5046409;28;20025;-86
2023/09/14 04:38:11;;;;;;;11.00;6.63;;;20.80;95.60;;;;;;5042064;28;20025;-86
2023/09/14 04:40:40;;;;;;;14.27;6.50;;;20.70;95.60;;;;;;5051139;28;20053;-86
2023/09/14 04:43:06;;;;;;;10.40;6.10;;;20.70;95.60;;;;;;5046698;28;20025;-86
2023/09/14 04:45:32;;;;;;;17.02;5.85;;;20.80;95.60;;;;;;5052505;28;20031;-86
2023/09/14 04:47:59;;;;;;;17.05;6.60;;;20.70;95.60;;;;;;5057185;28;20028;-85
2023/09/14 04:50:25;;;;;;;11.88;6.68;;;20.70;95.60;;;;;;5067083;28;20442;-85
2023/09/14 04:52:51;;;;;;;13.65;7.00;;;20.70;95.50;;;;;;5052942;28;20167;-85
2023/09/14 04:55:16;;;;;;;14.75;7.35;;;20.80;95.50;;;;;;5069173;28;20028;-85
2023/09/14 04:57:42;;;;;;;10.80;6.43;;;20.70;95.50;;;;;;5052573;28;20025;-85
2023/09/14 05:00:14;;;;;;;11.73;6.75;;;20.80;95.50;;;;;;5067895;28;20020;-86
2023/09/14 05:02:41;;;;;;;14.13;6.20;;;20.80;95.50;;;;;;5051789;28;20017;-86
2023/09/14 05:05:10;;;;;;;13.80;6.97;;;20.70;95.50;;;;;;5062970;28;20029;-86
2023/09/14 05:07:35;;;;;;;12.35;7.25;;;20.70;95.90;;;;;;5049412;28;20237;-84
2023/09/14 05:10:02;;;;;;;11.85;7.00;;;20.70;95.50;;;;;;5068320;28;20539;-86
2023/09/14 05:12:28;;;;;;;15.93;7.47;;;20.70;95.50;;;;;;5064085;28;20021;-85
2023/09/14 05:14:54;;;;;;;11.98;7.20;;;20.70;95.50;;;;;;5050025;28;20035;-86
2023/09/14 05:17:19;;;;;;;13.60;8.15;;;20.70;95.50;;;;;;5064904;28;20021;-85
2023/09/14 05:19:45;;;;;;;13.93;7.25;;;20.70;95.50;;;;;;5065233;28;20021;-86
2023/09/14 05:22:11;;;;;;;13.98;7.05;;;20.70;95.50;;;;;;5048133;28;20022;-86
2023/09/14 05:24:38;;;;;;;14.60;7.90;;;20.70;95.50;;;;;;5065474;28;20104;-85
2023/09/14 05:27:04;;;;;;;11.85;6.90;;;20.70;95.50;;;;;;5044305;28;20021;-85
2023/09/14 05:29:30;;;;;;;12.63;7.05;;;20.70;95.60;;;;;;5067911;28;20027;-85
2023/09/14 05:31:56;;;;;;;11.85;7.35;;;20.70;95.50;;;;;;5046179;28;20465;-85
2023/09/14 05:34:22;;;;;;;14.32;9.05;;;20.70;95.50;;;;;;5053658;28;20031;-85
2023/09/14 05:36:49;;;;;;;18.83;8.13;;;20.70;95.50;;;;;;5063730;28;20016;-86
2023/09/14 05:39:14;;;;;;;17.13;8.07;;;20.70;95.60;;;;;;5061968;28;20386;-86
2023/09/14 05:41:50;;;;;;;18.10;9.80;;;20.70;95.50;;;;;;5064300;28;20042;-86
2023/09/14 05:44:16;;;;;;;11.15;7.53;;;20.70;95.60;;;;;;5037731;28;20025;-85
2023/09/14 05:46:41;;;;;;;11.45;8.15;;;20.70;95.60;;;;;;5050376;28;20106;-85
2023/09/14 05:49:07;;;;;;;14.27;9.13;;;20.70;95.60;;;;;;5067172;28;20032;-85
2023/09/14 05:51:32;;;;;;;24.38;10.35;;;20.70;95.60;;;;;;5061651;28;20032;-84
2023/09/14 05:53:59;;;;;;;16.42;8.68;;;20.70;95.60;;;;;;5049941;28;20077;-85
2023/09/14 05:56:25;;;;;;;17.50;8.52;;;20.70;95.60;;;;;;5063090;28;20092;-85
2023/09/14 05:58:50;;;;;;;18.58;9.43;;;20.70;95.60;;;;;;5045481;28;20025;-85
2023/09/14 06:01:16;;;;;;;17.27;8.68;;;20.70;95.60;;;;;;5049790;28;20031;-84
2023/09/14 06:03:42;;;;;;;17.13;9.57;;;20.70;95.60;;;;;;5051388;28;20119;-85
2023/09/14 06:06:07;;;;;;;17.20;8.48;;;20.70;95.60;;;;;;5066076;28;20017;-84
2023/09/14 06:08:33;;;;;;;18.23;8.55;;;20.70;95.60;;;;;;5065083;28;20037;-85
2023/09/14 06:11:00;;;;;;;15.18;7.85;;;20.70;95.60;;;;;;5063537;28;20016;-85
2023/09/14 06:13:26;;;;;;;13.20;8.15;;;20.70;95.60;;;;;;5051176;28;20515;-85
2023/09/14 06:15:51;;;;;;;14.48;8.32;;;20.70;95.60;;;;;;5065056;28;20029;-85
2023/09/14 06:18:17;;;;;;;14.80;8.65;;;20.70;95.60;;;;;;5047157;28;20063;-85
2023/09/14 06:20:43;;;;;;;13.48;8.13;;;20.70;95.60;;;;;;5045157;28;20029;-86
2023/09/14 06:23:09;;;;;;;17.95;8.63;;;20.70;95.60;;;;;;5047487;28;20035;-85
2023/09/14 06:25:34;;;;;;;13.77;7.70;;;20.70;95.60;;;;;;5065862;28;20042;-85
2023/09/14 06:28:00;;;;;;;13.35;8.07;;;20.70;95.60;;;;;;5043599;28;20078;-85
2023/09/14 06:30:26;;;;;;;15.32;8.65;;;20.70;95.90;;;;;;5049806;28;20035;-87
2023/09/14 06:32:52;;;;;;;16.08;8.52;;;20.70;95.60;;;;;;5066769;28;20020;-85
2023/09/14 06:35:17;;;;;;;17.40;9.02;;;20.70;95.60;;;;;;5065483;28;20110;-85
2023/09/14 06:37:43;;;;;;;13.13;8.63;;;20.70;95.50;;;;;;5064008;28;20036;-85
2023/09/14 06:40:10;;;;;;;12.88;7.32;;;20.70;95.50;;;;;;5044367;28;20100;-85
2023/09/14 06:42:36;;;;;;;15.25;8.52;;;20.70;95.50;;;;;;5043274;28;20029;-85
2023/09/14 06:45:02;;;;;;;12.98;8.43;;;20.70;95.50;;;;;;5047265;28;20389;-84
2023/09/14 06:47:29;;;;;;;16.42;9.35;;;20.70;95.50;;;;;;5062541;28;20017;-85
2023/09/14 06:49:54;;;;;;;11.88;8.20;;;20.70;95.50;;;;;;5063250;28;20021;-85
2023/09/14 06:52:20;;;;;;;16.35;8.55;;;20.70;95.50;;;;;;5063317;28;20477;-85
2023/09/14 06:54:46;;;;;;;13.07;7.72;;;20.70;95.50;;;;;;5053214;28;20021;-85
2023/09/14 06:57:12;;;;;;;16.02;8.48;;;20.70;95.50;;;;;;5053505;28;20029;-85
2023/09/14 06:59:38;;;;;;;17.23;8.30;;;20.70;95.50;;;;;;5049426;28;20026;-86
2023/09/14 07:02:03;;;;;;;12.32;8.07;;;20.70;95.50;;;;;;5052997;28;20438;-85
2023/09/14 07:04:30;;;;;;;13.18;8.13;;;20.70;95.50;;;;;;5064984;28;20036;-86
2023/09/14 07:06:55;;;;;;;14.40;8.73;;;20.70;95.50;;;;;;5052031;28;20449;-85
2023/09/14 07:09:21;;;;;;;19.67;8.05;;;20.70;95.50;;;;;;5049594;28;20103;-87
2023/09/14 07:11:46;;;;;;;18.40;9.30;;;20.70;95.50;;;;;;5052517;28;20021;-86
2023/09/14 07:14:12;;;;;;;11.73;8.27;;;20.70;95.50;;;;;;5069587;28;20079;-85
2023/09/14 07:16:38;;;;;;;14.00;8.25;;;20.70;95.50;;;;;;5053639;28;20025;-86
2023/09/14 07:19:03;;;;;;;13.95;8.35;;;20.70;95.40;;;;;;5068067;28;20037;-86
2023/09/14 07:21:32;;;;;;;18.10;8.63;;;20.70;95.40;;;;;;5074231;28;20047;-87
2023/09/14 07:23:59;;;;;;;14.70;8.82;;;20.70;95.40;;;;;;5052815;28;20047;-86
2023/09/14 07:26:25;;;;;;;12.80;7.38;;;20.70;95.40;;;;;;5050196;28;20016;-86
2023/09/14 07:28:51;;;;;;;13.00;7.75;;;20.70;95.40;;;;;;5056286;28;20085;-86
2023/09/14 07:31:16;;;;;;;13.75;8.43;;;20.70;95.40;;;;;;5072039;28;20517;-87
2023/09/14 07:33:45;;;;;;;18.17;7.40;;;20.70;95.40;;;;;;5051876;28;20025;-86
2023/09/14 07:36:10;;;;;;;13.02;7.75;;;20.70;95.40;;;;;;5066264;28;20039;-86
2023/09/14 07:38:37;;;;;;;13.30;7.85;;;20.70;95.40;;;;;;5056526;28;20028;-86
2023/09/14 07:41:03;;;;;;;20.92;8.52;;;20.70;95.40;;;;;;5056711;28;20041;-86
2023/09/14 07:43:28;;;;;;;13.88;8.18;;;20.70;95.40;;;;;;5070000;28;20102;-86
2023/09/14 07:45:55;;;;;;;16.10;8.50;;;20.70;95.40;;;;;;5073159;28;20036;-86
2023/09/14 07:48:22;;;;;;;10.88;6.70;;;20.70;95.40;;;;;;5049847;28;20021;-86
2023/09/14 07:50:47;;;;;;;12.40;7.47;;;20.70;95.40;;;;;;5052351;28;20111;-86
2023/09/14 07:53:13;;;;;;;12.23;7.10;;;20.70;95.40;;;;;;5046206;28;20184;-87
2023/09/14 07:55:39;;;;;;;13.70;8.27;;;20.70;95.40;;;;;;5064221;28;20021;-86
2023/09/14 07:58:08;;;;;;;13.93;7.60;;;20.70;95.40;;;;;;5055637;28;20496;-86
2023/09/14 08:00:35;;;;;;;12.02;7.57;;;20.70;95.40;;;;;;5063415;28;20067;-86
2023/09/14 08:03:01;;;;;;;12.68;7.75;;;20.70;95.40;;;;;;5053179;28;20111;-85
2023/09/14 08:05:27;;;;;;;15.25;7.45;;;20.70;95.40;;;;;;5069458;28;20020;-86
2023/09/14 08:07:53;;;;;;;11.85;7.45;;;20.70;95.40;;;;;;5066852;28;20458;-86
2023/09/14 08:10:19;;;;;;;14.55;7.38;;;20.70;95.40;;;;;;5054140;28;20029;-86
2023/09/14 08:12:45;;;;;;;11.65;7.40;;;20.70;95.40;;;;;;5046664;28;20086;-86
2023/09/14 08:15:11;;;;;;;11.32;6.50;;;20.70;95.30;;;;;;5066446;28;20029;-86
2023/09/14 08:17:37;;;;;;;13.10;7.82;;;20.70;95.30;;;;;;5048287;28;20436;-86
2023/09/14 08:20:04;;;;;;;10.77;6.63;;;20.70;95.30;;;;;;5054902;28;20082;-86
2023/09/14 08:22:30;;;;;;;12.18;6.82;;;20.70;95.30;;;;;;5055913;28;20020;-86
2023/09/14 08:25:00;;;;;;;12.05;6.88;;;20.70;95.30;;;;;;5052318;28;20058;-86
2023/09/14 08:27:26;;;;;;;;;;;20.70;95.30;;;;;;5051199;28;20032;-86
2023/09/14 08:29:51;;;;;;;11.88;7.40;;;20.70;95.30;;;;;;5063567;28;20332;-86
2023/09/14 08:32:17;;;;;;;16.58;7.05;;;20.70;95.30;;;;;;5055059;28;20027;-86
2023/09/14 08:34:43;;;;;;;11.35;6.50;;;20.70;95.30;;;;;;5052817;28;20442;-86
2023/09/14 08:37:09;;;;;;;12.77;7.03;;;20.50;95.20;;;;;;5066386;28;20021;-86
2023/09/14 08:39:36;;;;;;;14.60;7.47;;;20.70;95.30;;;;;;5066550;28;20483;-86
2023/09/14 08:42:01;;;;;;;11.43;7.13;;;20.70;95.30;;;;;;5048197;28;20098;-82
2023/09/14 08:44:33;;;;;;;9.50;6.10;;;20.70;95.20;;;;;;5067912;28;20382;-84
2023/09/14 08:47:01;;;;;;;13.48;7.25;;;20.70;95.00;;;;;;5066157;28;20021;-82
2023/09/14 08:49:31;;;;;;;12.50;6.72;;;20.70;94.70;;;;;;5064040;28;20085;-82
2023/09/14 08:52:01;;;;;;;11.02;7.07;;;20.60;94.50;;;;;;5065391;28;20021;-86
2023/09/14 08:54:28;;;;;;;13.43;6.93;;;20.60;94.70;;;;;;5050217;28;20029;-86
2023/09/14 08:56:54;;;;;;;10.68;6.45;;;20.60;94.40;;;;;;5047325;28;20151;-86
2023/09/14 08:59:22;;;;;;;12.55;6.13;;;20.60;94.40;;;;;;5048770;28;20100;-85
2023/09/14 09:01:48;;;;;;;12.57;6.32;;;20.60;94.70;;;;;;5066864;28;20394;-87
2023/09/14 09:04:14;;;;;;;10.73;6.15;;;20.60;94.50;;;;;;5063101;28;20025;-86
2023/09/14 09:06:42;;;;;;;12.82;6.18;;;20.70;94.60;;;;;;5047072;28;20262;-86
2023/09/14 09:09:12;;;;;;;12.10;5.82;;;20.60;94.50;;;;;;5048986;28;20021;-86
2023/09/14 09:11:38;;;;;;;10.25;5.45;;;20.70;94.60;;;;;;5048036;28;20142;-87
2023/09/14 09:14:04;;;;;;;11.98;5.70;;;20.60;94.60;;;;;;5052391;28;20541;-87
2023/09/14 09:16:30;;;;;;;8.32;6.25;;;20.70;94.60;;;;;;5065492;28;20059;-86
2023/09/14 09:19:06;;;;;;;11.25;6.22;;;20.70;94.60;;;;;;5043352;28;20064;-87
2023/09/14 09:21:34;;;;;;;10.98;5.32;;;20.70;94.60;;;;;;5047065;28;20023;-87
2023/09/14 09:24:01;;;;;;;9.75;5.47;;;20.70;94.70;;;;;;5064987;28;20047;-86
2023/09/14 09:26:35;;;;;;;10.07;6.40;;;20.70;94.70;;;;;;5044724;28;20020;-88
2023/09/14 09:29:14;;;;;;;10.77;6.22;;;20.70;94.70;;;;;;5050195;28;20040;-88
2023/09/14 09:31:44;;;;;;;8.80;5.50;;;20.70;94.70;;;;;;5050208;28;20559;-86
2023/09/14 09:34:11;;;;;;;;;;;20.70;94.70;;;;;;5063590;28;20028;-88
2023/09/14 09:36:38;;;;;;;10.13;6.53;;;20.70;94.70;;;;;;5064979;28;19947;-87
2023/09/14 09:39:05;;;;;;;10.75;5.28;;;20.70;94.70;;;;;;5046904;28;20029;-86
2023/09/14 09:41:34;;;;;;;8.23;5.20;;;20.70;94.70;;;;;;5064360;28;20025;-86
2023/09/14 09:44:06;;;;;;;8.80;5.55;;;20.70;94.70;;;;;;5047294;28;20389;-86
2023/09/14 09:46:36;;;;;;;9.75;5.15;;;20.70;94.70;;;;;;5048518;28;20029;-87
2023/09/14 09:49:22;;;;;;;8.13;5.32;;;20.70;94.80;;;;;;5063587;28;20025;-86
2023/09/14 09:51:50;;;;;;;8.95;4.43;;;20.70;94.80;;;;;;5066375;28;20044;-87
2023/09/14 09:54:19;;;;;;;5.30;3.90;;;20.70;94.80;;;;;;5064555;28;20082;-86
2023/09/14 09:56:45;;;;;;;13.65;4.72;;;20.70;94.80;;;;;;5046465;28;20689;-87
2023/09/14 09:59:13;;;;;;;8.30;5.13;;;20.70;94.80;;;;;;5047960;28;20074;-87
2023/09/14 10:01:45;;;;;;;11.27;4.20;;;20.70;94.80;;;;;;5049592;28;20031;-86
2023/09/14 10:04:11;;;;;;;6.55;4.47;;;20.70;94.80;;;;;;5065305;28;20039;-88
2023/09/14 10:06:38;;;;;;;7.53;4.68;;;20.70;94.80;;;;;;5050477;28;20032;-86
2023/09/14 10:09:08;;;;;;;7.80;4.57;;;20.80;95.20;;;;;;5044855;28;20024;-86
2023/09/14 10:11:35;;;;;;;10.13;4.75;;;20.70;94.80;;;;;;5065897;28;20029;-87
2023/09/14 10:14:03;;;;;;;14.68;5.07;;;20.70;94.90;;;;;;5060076;28;20055;-88
2023/09/14 10:16:34;;;;;;;8.85;4.65;;;20.70;94.90;;;;;;5046825;28;20565;-87
2023/09/14 10:19:02;;;;;;;8.18;5.00;;;20.70;94.90;;;;;;5049380;28;20048;-87
2023/09/14 10:21:29;;;;;;;7.95;4.88;;;20.70;95.20;;;;;;5049089;28;20420;-86
2023/09/14 10:23:55;;;;;;;11.45;4.53;;;20.70;94.90;;;;;;5045518;28;20051;-86
2023/09/14 10:26:20;;;;;;;10.65;4.30;;;20.80;94.90;;;;;;5052478;28;20476;-87
2023/09/14 10:28:46;;;;;;;7.90;4.45;;;20.70;94.90;;;;;;5067699;28;20103;-86
2023/09/14 10:31:13;;;;;;;10.65;4.57;;;20.70;94.90;;;;;;5066994;28;20024;-87
2023/09/14 10:33:47;;;;;;;7.30;3.95;;;20.80;94.90;;;;;;5053861;28;20469;-87
2023/09/14 10:36:14;;;;;;;8.27;4.40;;;20.80;94.90;;;;;;5048366;28;20028;-86
2023/09/14 10:38:45;;;;;;;7.78;4.00;;;20.70;94.90;;;;;;5048025;28;20039;-86
2023/09/14 10:41:14;;;;;;;6.57;4.35;;;20.80;94.90;;;;;;5050854;28;20079;-87
2023/09/14 10:43:41;;;;;;;7.35;4.10;;;20.70;94.90;;;;;;5048789;28;20025;-86
2023/09/14 10:46:15;;;;;;;7.20;4.35;;;20.80;94.90;;;;;;5068265;28;20078;-86
2023/09/14 10:48:41;;;;;;;6.65;4.20;;;20.80;94.90;;;;;;5069659;28;20032;-87
2023/09/14 10:51:10;;;;;;;6.57;4.10;;;20.80;94.90;;;;;;5064665;28;20538;-86
2023/09/14 10:53:36;;;;;;;9.63;4.95;;;20.80;94.90;;;;;;5055479;28;20028;-87
2023/09/14 10:56:02;;;;;;;5.28;3.80;;;20.80;94.90;;;;;;5051875;28;20032;-89
2023/09/14 10:58:44;;;;;;;5.95;3.45;;;20.70;94.80;;;;;;5048341;28;20697;-90
2023/09/14 11:01:12;;;;;;;6.72;4.18;;;20.80;94.80;;;;;;5049940;28;20025;-90
2023/09/14 11:04:10;;;;;;;13.27;4.10;;;20.70;93.90;;;;;;5053794;28;20024;-88
2023/09/14 11:06:44;;;;;;;7.55;4.00;;;20.70;93.90;;;;;;5068711;28;20706;-88
2023/09/14 11:09:09;;;;;;;9.18;4.82;;;20.70;93.50;;;;;;5049744;28;20028;-88
2023/09/14 11:11:39;;;;;;;7.03;3.97;;;20.70;93.30;;;;;;5051276;28;20024;-90
2023/09/14 11:14:10;;;;;;;5.38;3.63;;;20.70;93.00;;;;;;5064637;28;20060;-90
2023/09/14 11:16:53;;;;;;;6.78;4.38;;;20.70;92.70;;;;;;5054628;28;20052;-88
2023/09/14 11:19:43;;;;;;;8.98;3.72;;;20.70;92.70;;;;;;5053577;28;20025;-90
2023/09/14 11:22:13;;;;;;;9.93;4.10;;;20.70;92.20;;;;;;5055235;28;20028;-90
2023/09/14 11:24:38;;;;;;;;;;;20.60;92.40;;;;;;5049680;28;20266;-90
2023/09/14 11:27:04;;;;;;;6.40;3.85;;;20.70;92.40;;;;;;5068450;28;19929;-90
2023/09/14 11:29:31;;;;;;;6.00;3.85;;;20.60;92.30;;;;;;5068900;28;20020;-90
2023/09/14 11:32:00;;;;;;;8.02;4.07;;;20.70;92.40;;;;;;5070995;28;20111;-89
2023/09/14 11:34:28;;;;;;;7.07;3.95;;;20.60;92.00;;;;;;5070601;28;20472;-89
2023/09/14 11:37:01;;;;;;;5.90;4.00;;;20.60;92.00;;;;;;5050033;28;20032;-90
2023/09/14 11:39:28;;;;;;;9.32;4.13;;;20.60;92.10;;;;;;5052224;28;20540;-89
2023/09/14 11:45:16;;;;;;;7.72;4.47;;;20.60;91.80;;;;;;5070367;28;20055;-89
2023/09/14 11:47:42;;;;;;;7.75;5.05;;;20.60;92.00;;;;;;5055739;28;20121;-89
2023/09/14 11:50:10;;;;;;;6.90;4.60;;;20.60;91.80;;;;;;5050932;28;20108;-87
2023/09/14 11:52:36;;;;;;;7.25;4.72;;;20.60;92.00;;;;;;5070895;28;20036;-90
2023/09/14 11:55:02;;;;;;;8.05;4.30;;;20.60;92.00;;;;;;5065619;28;20407;-89
2023/09/14 11:57:28;;;;;;;6.38;4.22;;;20.60;92.00;;;;;;5050622;28;20067;-91
2023/09/14 11:59:59;;;;;;;11.40;4.93;;;20.60;92.00;;;;;;5065422;28;20037;-90
2023/09/14 12:02:29;;;;;;;6.57;3.55;;;20.70;91.80;;;;;;5049068;28;20024;-88
2023/09/14 12:05:05;;;;;;;6.25;4.10;;;20.60;91.70;;;;;;5052607;28;20032;-89
2023/09/14 12:07:37;;;;;;;9.93;4.00;;;20.60;91.80;;;;;;5056544;28;20569;-85
2023/09/14 12:10:24;;;;;;;6.10;2.92;;;20.60;92.20;;;;;;5064446;28;20021;-90
2023/09/14 12:12:54;;;;;;;6.25;2.90;;;20.70;91.50;;;;;;5060863;28;20092;-88
2023/09/14 12:15:28;;;;;;;4.17;2.60;;;20.60;91.20;;;;;;5069432;28;20017;-88
2023/09/14 12:17:54;;;;;;;7.65;2.42;;;20.60;91.20;;;;;;5046371;28;20282;-89
2023/09/14 12:20:21;;;;;;;3.10;2.05;;;20.60;91.10;;;;;;5066779;28;20017;-90
2023/09/14 12:22:47;;;;;;;4.60;3.42;;;20.60;90.90;;;;;;5068790;28;20028;-89
2023/09/14 12:25:14;;;;;;;8.45;2.90;;;20.60;90.60;;;;;;5047671;28;20474;-89
2023/09/14 12:27:41;;;;;;;3.63;2.70;;;20.60;90.50;;;;;;5050205;28;20041;-89
2023/09/14 12:30:09;;;;;;;3.50;2.58;;;20.60;90.50;;;;;;5067972;28;20472;-88
2023/09/14 12:32:36;;;;;;;3.92;2.75;;;20.60;90.40;;;;;;5066183;28;20033;-89
2023/09/14 12:35:04;;;;;;;7.88;2.72;;;20.60;90.40;;;;;;5060979;28;20457;-89
2023/09/14 12:37:29;;;;;;;4.82;2.80;;;20.60;90.00;;;;;;5067727;28;20480;-89
2023/09/14 12:39:55;;;;;;;3.83;2.70;;;20.60;90.10;;;;;;5068330;28;20024;-88
2023/09/14 12:42:23;;;;;;;8.80;2.42;;;20.60;90.10;;;;;;5050732;28;20021;-88
2023/09/14 12:44:53;;;;;;;3.38;2.28;;;20.60;89.90;;;;;;5051866;28;20040;-88
2023/09/14 12:47:19;;;;;;;6.03;2.70;;;20.60;89.70;;;;;;5053046;28;20035;-89
2023/09/14 12:49:45;;;;;;;7.35;3.25;;;20.60;90.00;;;;;;5067850;28;20032;-87
2023/09/14 12:52:11;;;;;;;7.20;2.80;;;20.60;90.00;;;;;;5071184;28;20033;-88
2023/09/14 12:54:37;;;;;;;3.55;2.30;;;20.60;89.80;;;;;;5051297;28;20030;-89
2023/09/14 12:57:16;;;;;;;2.80;2.08;;;20.70;89.60;;;;;;5047065;28;20108;-89
2023/09/14 13:00:00;;;;;;;2.72;2.10;;;20.70;90.10;;;;;;5053402;28;20113;-88
2023/09/14 13:02:26;;;;;;;2.47;1.80;;;20.70;87.80;;;;;;5049701;28;20024;-88
2023/09/14 13:04:52;;;;;;;2.60;2.10;;;20.70;88.60;;;;;;5044262;28;20101;-88
2023/09/14 13:07:17;;;;;;;4.05;2.65;;;20.70;88.80;;;;;;5044757;28;20031;-89
2023/09/14 13:09:44;;;;;;;6.07;2.55;;;20.70;88.50;;;;;;5068304;28;20384;-88
2023/09/14 13:12:23;;;;;;;3.65;2.58;;;20.70;87.90;;;;;;5072498;28;20020;-89
2023/09/14 13:14:49;;;;;;;5.70;2.65;;;20.70;88.70;;;;;;5070657;28;20099;-88
2023/09/14 13:17:21;;;;;;;6.20;3.10;;;20.70;88.60;;;;;;5039451;28;20092;-87
2023/09/14 13:19:46;;;;;;;5.25;3.05;;;20.70;87.90;;;;;;5053072;28;20082;-89
2023/09/14 13:22:12;;;;;;;5.40;3.08;;;20.70;86.90;;;;;;5047722;28;20112;-86
2023/09/14 13:24:39;;;;;;;11.13;4.75;;;20.70;87.10;;;;;;5052005;28;20036;-86
2023/09/14 13:27:05;;;;;;;7.18;5.07;;;20.70;87.50;;;;;;5052140;28;20393;-86
2023/09/14 13:29:30;;;;;;;5.25;2.85;;;20.70;88.10;;;;;;5064755;28;20025;-86
2023/09/14 13:31:56;;;;;;;6.53;3.30;;;20.70;88.20;;;;;;5052110;28;20027;-86
2023/09/14 13:34:21;;;;;;;4.60;2.70;;;20.80;87.90;;;;;;5062495;28;20529;-86
2023/09/14 13:36:52;;;;;;;3.85;2.67;;;20.70;88.30;;;;;;5071253;28;20022;-86
2023/09/14 13:39:18;;;;;;;6.60;2.85;;;20.70;88.30;;;;;;5043051;28;20055;-86
2023/09/14 13:41:44;;;;;;;5.20;2.92;;;20.70;88.30;;;;;;5062805;28;20052;-86
2023/09/14 13:44:10;;;;;;;4.88;2.70;;;20.70;88.60;;;;;;5064879;28;20403;-86
2023/09/14 13:46:35;;;;;;;3.83;2.53;;;20.70;89.10;;;;;;5045903;28;20072;-87
2023/09/14 13:49:01;;;;;;;6.25;2.60;;;20.70;89.30;;;;;;5067449;28;20044;-89
2023/09/14 13:51:27;;;;;;;4.25;2.67;;;20.70;89.40;;;;;;5063319;28;20451;-86
2023/09/14 13:53:52;;;;;;;10.75;3.22;;;20.70;89.20;;;;;;5051709;28;20043;-86
2023/09/14 13:56:18;;;;;;;10.90;2.75;;;20.70;89.30;;;;;;5062394;28;20025;-88
2023/09/14 13:58:44;;;;;;;4.05;2.30;;;20.70;89.00;;;;;;5063738;28;20025;-87
2023/09/14 14:01:11;;;;;;;5.18;2.70;;;20.70;88.40;;;;;;5047416;28;20451;-87
2023/09/14 14:03:37;;;;;;;4.32;2.92;;;20.70;88.00;;;;;;5064670;28;20082;-87
2023/09/14 14:06:04;;;;;;;3.35;2.45;;;20.70;87.80;;;;;;5052769;28;20020;-87
2023/09/14 14:08:31;;;;;;;2.47;1.90;;;20.70;87.80;;;;;;5046812;28;20029;-88
2023/09/14 14:10:56;;;;;;;4.00;2.30;;;20.70;87.90;;;;;;5070631;28;20024;-87
2023/09/14 14:13:22;;;;;;;3.50;2.50;;;20.70;87.90;;;;;;5048532;28;20028;-88
2023/09/14 14:15:50;;;;;;;7.40;3.10;;;20.70;87.60;;;;;;5050670;28;20040;-86
2023/09/14 14:18:16;;;;;;;5.80;3.20;;;20.70;88.10;;;;;;5069179;28;20033;-85
2023/09/14 14:20:42;;;;;;;3.72;3.20;;;20.70;88.50;;;;;;5045736;28;20025;-85
2023/09/14 14:23:08;;;;;;;9.25;3.30;;;20.70;88.80;;;;;;5065995;28;20047;-84
2023/09/14 14:25:33;;;;;;;8.15;3.95;;;20.70;89.10;;;;;;5066010;28;20111;-85
2023/09/14 14:28:00;;;;;;;5.10;3.13;;;20.70;89.30;;;;;;5051630;28;20024;-86
2023/09/14 14:30:27;;;;;;;5.43;3.28;;;20.70;89.60;;;;;;5066574;28;20013;-85
2023/09/14 14:32:55;;;;;;;8.43;3.53;;;20.70;89.70;;;;;;5051139;28;20024;-85
2023/09/14 14:35:20;;;;;;;5.07;3.28;;;20.80;90.00;;;;;;5046960;28;20021;-86
2023/09/14 14:37:46;;;;;;;9.07;3.55;;;20.80;90.00;;;;;;5054791;28;20025;-86
2023/09/14 14:40:12;;;;;;;6.55;4.00;;;20.80;90.10;;;;;;5053655;28;20027;-85
2023/09/14 14:42:38;;;;;;;8.45;3.42;;;20.80;90.20;;;;;;5063640;28;20020;-86
2023/09/14 14:45:06;;;;;;;8.63;3.72;;;20.80;90.20;;;;;;5050834;28;20029;-91
2023/09/14 14:47:32;;;;;;;6.07;3.10;;;20.80;90.30;;;;;;5045110;28;20087;-85
2023/09/14 14:49:57;;;;;;;7.78;3.38;;;20.80;90.30;;;;;;5062288;28;20037;-85
2023/09/14 14:52:24;;;;;;;5.70;3.10;;;20.80;90.40;;;;;;5057901;28;20043;-85
2023/09/14 14:54:49;;;;;;;4.85;3.30;;;20.80;90.40;;;;;;5042261;28;20025;-85
2023/09/14 14:57:15;;;;;;;6.95;3.28;;;20.80;90.50;;;;;;5064072;28;20050;-85
2023/09/14 14:59:41;;;;;;;3.85;2.83;;;20.80;90.50;;;;;;5055771;28;20667;-85
2023/09/14 15:02:06;;;;;;;4.68;3.03;;;20.80;90.60;;;;;;5039225;28;20052;-86
2023/09/14 15:04:34;;;;;;;5.32;3.00;;;20.80;90.60;;;;;;5043713;28;20025;-86
2023/09/14 15:07:00;;;;;;;4.50;2.85;;;20.80;90.60;;;;;;5045232;28;20025;-86
2023/09/14 15:09:27;;;;;;;6.75;3.10;;;20.80;90.70;;;;;;5060968;28;20017;-85
2023/09/14 15:11:54;;;;;;;3.75;2.88;;;20.80;90.70;;;;;;5055759;28;20063;-85
2023/09/14 15:14:20;;;;;;;5.68;2.92;;;20.80;90.70;;;;;;5063890;28;20019;-85
2023/09/14 15:16:47;;;;;;;4.35;2.85;;;20.80;90.80;;;;;;5040917;28;20020;-86
2023/09/14 15:19:12;;;;;;;4.07;3.10;;;20.80;90.80;;;;;;5061905;28;20030;-85
2023/09/14 15:21:38;;;;;;;6.82;3.00;;;20.80;90.90;;;;;;5046341;28;20029;-85
2023/09/14 15:24:04;;;;;;;4.28;2.83;;;20.80;90.90;;;;;;5067165;28;20024;-86
2023/09/14 15:26:29;;;;;;;6.65;3.33;;;20.80;90.90;;;;;;5050306;28;20132;-86
2023/09/14 15:28:57;;;;;;;6.78;3.15;;;20.90;91.00;;;;;;5063887;28;20036;-85
2023/09/14 15:31:23;;;;;;;6.95;3.17;;;20.80;91.30;;;;;;5050399;28;20027;-86
2023/09/14 15:33:48;;;;;;;7.60;3.47;;;20.80;91.00;;;;;;5064734;28;20463;-85
2023/09/14 15:36:14;;;;;;;3.97;3.05;;;20.80;91.00;;;;;;5069011;28;20082;-85
2023/09/14 15:38:41;;;;;;;7.80;3.13;;;20.80;91.10;;;;;;5047936;28;20021;-86
2023/09/14 15:41:12;;;;;;;4.60;3.20;;;20.80;91.10;;;;;;5055529;28;20035;-84
2023/09/14 15:43:41;;;;;;;4.63;2.90;;;20.80;91.10;;;;;;5046812;28;20116;-85
2023/09/14 15:46:07;;;;;;;6.53;2.90;;;20.80;91.10;;;;;;5045095;28;20028;-85